Time;durP1;ratioP1;P1;durP2;ratioP2;P2;SDS_P1;SDS_P2;PMS_P1;PMS_P2;Temp;Humidity;BMP_temperature;BMP_pressure;BME280_temperature;BME280_humidity;BME280_pressure;Samples;Min_cycle;Max_cycle;Signal;HPM_P1;HPM_P2
2021/11/26 00:01:50;;;;;;;57.72;28.38;;;3.70;76.70;;;2.79;62.84;93845.53;4947135;28;20234;-80
2021/11/26 00:04:19;;;;;;;59.65;31.00;;;3.70;76.70;;;2.72;62.77;93829.88;4940731;28;20630;-82
2021/11/26 00:06:46;;;;;;;62.92;29.80;;;3.70;76.70;;;2.76;63.37;93837.28;4955310;28;20661;-79
2021/11/26 00:09:14;;;;;;;60.63;29.27;;;3.70;76.70;;;2.75;63.08;93849.44;4950837;28;20311;-80
2021/11/26 00:11:42;;;;;;;52.75;27.77;;;3.70;76.70;;;2.76;63.20;93843.28;4940372;28;20203;-80
2021/11/26 00:14:22;;;;;;;54.80;28.27;;;3.70;76.70;;;2.72;63.09;93847.16;4939433;28;20226;-79
2021/11/26 00:16:57;;;;;;;67.78;30.98;;;3.80;76.80;;;2.77;62.92;93857.84;4942678;28;20199;-80
2021/11/26 00:19:26;;;;;;;59.70;28.58;;;3.70;76.70;;;2.76;62.95;93842.47;4943568;28;20784;-80
2021/11/26 00:21:54;;;;;;;63.47;29.80;;;3.70;76.70;;;2.75;63.08;93838.25;4945094;28;20224;-80
2021/11/26 00:24:22;;;;;;;63.22;30.10;;;3.70;76.70;;;2.74;63.19;93824.50;4944029;28;20229;-81
2021/11/26 00:26:50;;;;;;;70.32;33.72;;;3.70;76.80;;;2.70;63.37;93825.84;4947812;28;20229;-81
2021/11/26 00:29:18;;;;;;;60.28;30.02;;;3.70;76.70;;;2.67;63.13;93819.22;4958899;28;20219;-80
2021/11/26 00:31:45;;;;;;;72.05;32.75;;;3.70;76.70;;;2.66;63.21;93824.56;4972618;28;20273;-81
2021/11/26 00:34:13;;;;;;;64.97;32.38;;;3.70;76.70;;;2.63;63.57;93820.53;4959353;28;20219;-79
2021/11/26 00:36:40;;;;;;;67.68;31.05;;;3.60;76.70;;;2.61;63.32;93826.84;4958898;28;20622;-80
2021/11/26 00:39:07;;;;;;;63.90;29.30;;;3.60;76.70;;;2.59;63.39;93821.84;4943724;28;20222;-80
2021/11/26 00:41:35;;;;;;;61.00;28.17;;;3.60;76.80;;;2.61;63.33;93806.94;4942970;28;20206;-80
2021/11/26 00:44:03;;;;;;;59.95;27.95;;;3.60;76.80;;;2.62;63.20;93805.97;4927821;28;20720;-80
2021/11/26 00:46:32;;;;;;;56.78;27.08;;;3.60;76.80;;;2.62;63.33;93812.94;4943179;28;20653;-81
2021/11/26 00:49:00;;;;;;;58.50;28.67;;;3.60;76.90;;;2.62;63.37;93812.94;4927712;28;20587;-80
2021/11/26 00:51:30;;;;;;;61.42;28.13;;;3.50;76.90;;;2.60;63.43;93807.94;4943731;28;20197;-80
2021/11/26 00:53:59;;;;;;;59.85;29.52;;;3.60;76.90;;;2.56;63.51;93814.41;4939036;28;20222;-81
2021/11/26 00:56:27;;;;;;;61.58;30.13;;;3.50;76.80;;;2.60;63.50;93839.00;4940003;29;20235;-80
2021/11/26 00:58:55;;;;;;;71.20;33.03;;;3.60;76.90;;;2.56;63.59;93835.94;4939947;29;20294;-80
2021/11/26 01:01:22;;;;;;;64.57;31.08;;;3.60;76.90;;;2.56;63.43;93825.59;4924339;29;20297;-81
2021/11/26 01:03:53;;;;;;;64.28;30.45;;;3.50;76.80;;;2.56;63.65;93823.00;4954898;28;20237;-80
2021/11/26 01:06:21;;;;;;;69.80;30.88;;;3.50;76.80;;;2.52;63.78;93816.53;4943242;28;20195;-80
2021/11/26 01:08:48;;;;;;;67.22;31.73;;;3.50;76.80;;;2.50;64.01;93813.31;4957819;28;20237;-80
2021/11/26 01:11:15;;;;;;;66.40;31.17;;;3.60;76.90;;;2.53;63.62;93809.59;4942790;28;20303;-81
2021/11/26 01:13:43;;;;;;;69.05;32.08;;;3.50;76.80;;;2.52;63.68;93800.22;4943030;28;20219;-80
2021/11/26 01:16:11;;;;;;;65.47;30.67;;;3.50;76.90;;;2.51;63.81;93804.56;4942751;28;20286;-80
2021/11/26 01:18:38;;;;;;;68.50;30.80;;;3.50;76.90;;;2.50;63.70;93813.31;4956227;28;20234;-80
2021/11/26 01:21:07;;;;;;;69.97;33.50;;;3.50;76.80;;;2.49;63.93;93810.88;4923622;28;20681;-81
2021/11/26 01:23:36;;;;;;;62.67;29.38;;;3.50;76.90;;;2.46;63.59;93801.69;4956555;28;20230;-81
2021/11/26 01:26:04;;;;;;;72.55;32.97;;;3.50;76.90;;;2.48;63.82;93804.91;4940319;28;20212;-80
2021/11/26 01:28:32;;;;;;;70.40;33.53;;;3.50;77.30;;;2.46;63.94;93798.28;4939903;28;20224;-80
2021/11/26 01:31:00;;;;;;;65.57;31.40;;;3.50;77.00;;;2.39;63.84;93791.22;4940389;28;20605;-83
2021/11/26 01:33:27;;;;;;;57.63;27.85;;;3.50;77.80;;;2.46;63.80;93799.09;4921237;28;20566;-84
2021/11/26 01:35:55;;;;;;;64.57;31.00;;;3.50;77.00;;;2.48;63.63;93791.97;4953413;28;20184;-84
2021/11/26 01:38:23;;;;;;;62.85;29.33;;;3.40;77.00;;;2.50;63.91;93779.69;4947388;28;20218;-84
2021/11/26 01:40:50;;;;;;;61.85;29.17;;;3.50;77.10;;;2.52;63.79;93782.88;4941710;28;20195;-83
2021/11/26 01:43:22;;;;;;;65.03;31.17;;;3.40;77.00;;;2.49;63.56;93772.06;4941117;28;20266;-83
2021/11/26 01:45:57;;;;;;;63.53;29.77;;;3.50;77.20;;;2.51;63.66;93776.09;4936996;29;20191;-84
2021/11/26 01:48:25;;;;;;;63.80;30.95;;;3.50;77.10;;;2.52;63.72;93769.16;4937764;28;20293;-84
2021/11/26 01:50:54;;;;;;;66.88;32.03;;;3.50;77.10;;;2.49;63.87;93770.28;4923265;29;20239;-83
2021/11/26 01:53:22;;;;;;;65.28;29.30;;;3.50;77.00;;;2.47;63.67;93772.25;4907169;28;20207;-83
2021/11/26 01:55:50;;;;;;;71.20;32.92;;;3.50;77.10;;;2.49;63.80;93772.88;4954311;28;20749;-83
2021/11/26 01:58:17;;;;;;;63.00;30.33;;;3.40;77.00;;;2.45;63.94;93758.66;4940663;28;20281;-85
2021/11/26 02:00:46;;;;;;;67.95;32.38;;;3.50;77.00;;;2.44;63.88;93744.13;4941515;28;20203;-84
2021/11/26 02:03:14;;;;;;;72.03;34.47;;;3.50;77.10;;;2.45;63.86;93730.19;4941348;28;20226;-84
2021/11/26 02:05:42;;;;;;;69.22;32.08;;;3.40;77.00;;;2.44;63.85;93723.44;4941385;28;20205;-85
2021/11/26 02:08:10;;;;;;;64.90;30.33;;;3.40;77.00;;;2.46;64.01;93729.22;4942161;28;20207;-84
2021/11/26 02:10:39;;;;;;;62.75;29.20;;;3.50;77.10;;;2.43;63.78;93732.16;4942407;28;20223;-84
2021/11/26 02:13:07;;;;;;;69.85;32.13;;;3.40;77.00;;;2.46;63.71;93734.38;4926557;28;20207;-84
2021/11/26 02:15:43;;;;;;;67.20;32.67;;;3.50;77.10;;;2.42;63.95;93722.78;4942901;28;20718;-84
2021/11/26 02:18:14;;;;;;;63.28;30.95;;;3.40;77.00;;;2.47;63.63;93728.25;4942322;28;20198;-84
2021/11/26 02:20:43;;;;;;;63.40;31.02;;;3.50;77.10;;;2.44;63.76;93728.59;4942643;28;20199;-83
2021/11/26 02:23:11;;;;;;;69.25;31.08;;;3.40;77.00;;;2.48;63.51;93729.03;4942432;28;20594;-83
2021/11/26 02:25:39;;;;;;;61.80;29.48;;;3.50;77.10;;;2.50;63.87;93717.56;4942679;28;20265;-84
2021/11/26 02:28:11;;;;;;;65.00;30.05;;;3.50;77.10;;;2.51;63.74;93695.84;4941642;28;20203;-84
2021/11/26 02:30:38;;;;;;;63.78;29.58;;;3.40;77.00;;;2.48;63.60;93685.88;4942857;28;20226;-83
2021/11/26 02:33:17;;;;;;;63.85;29.60;;;3.50;77.10;;;2.52;63.68;93681.16;4942455;28;20207;-84
2021/11/26 02:35:48;;;;;;;60.55;29.52;;;3.50;77.10;;;2.49;63.41;93660.78;4941812;28;20199;-84
2021/11/26 02:38:15;;;;;;;57.92;27.98;;;3.50;77.00;;;2.55;63.63;93675.63;4942468;28;20191;-84
2021/11/26 02:40:45;;;;;;;60.08;26.88;;;3.50;77.10;;;2.55;63.43;93676.44;4942338;28;20202;-84
2021/11/26 02:43:14;;;;;;;60.45;29.25;;;3.50;77.10;;;2.54;63.54;93672.22;4926164;28;20230;-84
2021/11/26 02:45:44;;;;;;;61.63;28.67;;;3.50;77.10;;;2.55;63.64;93666.09;4942278;28;20674;-83
2021/11/26 02:48:14;;;;;;;56.28;27.55;;;3.50;77.00;;;2.57;63.66;93665.91;4941649;28;20257;-83
2021/11/26 02:50:46;;;;;;;60.65;29.33;;;3.50;77.00;;;2.55;63.67;93647.97;4926195;28;20661;-84
2021/11/26 02:53:14;;;;;;;65.53;30.10;;;3.50;76.90;;;2.54;63.70;93640.38;4942204;28;20650;-83
2021/11/26 02:55:41;;;;;;;61.67;28.63;;;3.50;77.70;;;2.51;63.76;93640.72;4941277;28;20256;-83
2021/11/26 02:58:10;;;;;;;58.75;26.83;;;3.50;76.90;;;2.52;63.56;93632.75;4941378;28;20843;-83
2021/11/26 03:00:41;;;;;;;53.28;26.42;;;3.50;76.90;;;2.57;63.48;93640.00;4925541;28;20305;-84
2021/11/26 03:03:08;;;;;;;54.20;25.13;;;3.50;77.00;;;2.55;63.53;93629.84;4925860;28;20226;-84
2021/11/26 03:05:36;;;;;;;52.47;25.38;;;3.50;77.00;;;2.56;63.46;93631.47;4941947;28;20219;-84
2021/11/26 03:08:05;;;;;;;59.30;27.48;;;3.50;77.00;;;2.60;63.64;93628.50;4941563;28;20253;-84
2021/11/26 03:10:33;;;;;;;52.80;24.80;;;3.50;77.00;;;2.60;63.18;93631.09;4941855;28;20253;-83
2021/11/26 03:13:08;;;;;;;52.25;25.30;;;3.60;77.00;;;2.63;63.51;93631.56;4956817;28;20214;-84
2021/11/26 03:15:38;;;;;;;56.10;26.25;;;3.50;77.00;;;2.64;63.63;93622.03;4922841;29;20226;-84
2021/11/26 03:18:06;;;;;;;54.25;26.42;;;3.50;77.00;;;2.65;63.46;93621.00;4922272;29;20227;-84
2021/11/26 03:20:33;;;;;;;55.40;26.23;;;3.50;77.00;;;2.66;63.59;93614.88;4922451;29;20251;-83
2021/11/26 03:23:01;;;;;;;59.17;27.73;;;3.60;77.00;;;2.63;63.23;93599.69;4952981;28;20265;-84
2021/11/26 03:25:29;;;;;;;55.10;25.83;;;3.50;77.00;;;2.69;63.36;93606.75;4941837;28;20264;-83
2021/11/26 03:27:56;;;;;;;59.80;27.70;;;3.60;77.00;;;2.68;62.97;93607.72;4941552;28;20638;-84
2021/11/26 03:30:25;;;;;;;56.78;27.08;;;3.60;76.90;;;2.68;63.38;93605.16;4941982;28;20222;-83
2021/11/26 03:32:53;;;;;;;67.35;28.67;;;3.60;76.90;;;2.69;63.17;93606.75;4940748;28;20237;-84
2021/11/26 03:35:20;;;;;;;58.65;27.90;;;3.60;76.90;;;2.65;63.07;93616.66;4941583;28;20314;-83
2021/11/26 03:37:48;;;;;;;60.67;27.05;;;3.60;76.90;;;2.67;63.17;93619.06;4941580;28;20234;-83
2021/11/26 03:40:18;;;;;;;63.60;29.52;;;3.60;76.90;;;2.67;63.12;93624.25;4941101;28;20348;-83
2021/11/26 03:42:46;;;;;;;68.35;31.55;;;3.60;76.90;;;2.65;63.28;93618.44;4941361;28;20210;-84
2021/11/26 03:45:15;;;;;;;66.78;29.92;;;3.60;76.80;;;2.63;63.58;93616.03;4925535;28;20274;-83
2021/11/26 03:47:44;;;;;;;72.20;30.23;;;3.60;76.90;;;2.59;63.37;93609.59;4925135;28;20257;-83
2021/11/26 03:50:12;;;;;;;65.85;28.98;;;3.60;76.90;;;2.60;63.39;93603.44;4956190;28;20281;-83
2021/11/26 03:52:40;;;;;;;69.20;30.33;;;3.60;76.90;;;2.64;63.46;93601.31;4958878;28;20611;-82
2021/11/26 03:55:16;;;;;;;68.50;28.73;;;3.60;76.90;;;2.63;63.40;93592.72;4941538;28;20223;-83
2021/11/26 03:57:45;;;;;;;65.95;30.40;;;3.60;77.00;;;2.62;63.43;93587.72;4941850;28;20227;-83
2021/11/26 04:00:15;;;;;;;70.50;29.25;;;3.60;76.90;;;2.60;63.42;93581.91;4941967;28;20310;-83
2021/11/26 04:02:44;;;;;;;69.47;28.55;;;3.60;76.90;;;2.60;63.51;93576.75;4933913;28;20656;-83
2021/11/26 04:05:11;;;;;;;70.57;30.48;;;3.60;76.90;;;2.59;63.28;93569.94;4953685;28;20224;-83
2021/11/26 04:07:39;;;;;;;69.50;30.08;;;3.60;76.80;;;2.59;63.61;93570.75;4948885;28;20202;-83
2021/11/26 04:10:09;;;;;;;68.53;30.60;;;3.60;76.90;;;2.52;63.46;93554.31;4946509;28;20223;-84
2021/11/26 04:12:37;;;;;;;63.75;29.77;;;3.50;76.80;;;2.55;63.19;93551.38;4945228;28;20202;-83
2021/11/26 04:15:06;;;;;;;66.97;29.30;;;3.50;76.90;;;2.57;63.51;93552.00;4938281;28;20226;-84
2021/11/26 04:17:36;;;;;;;63.38;28.42;;;3.50;76.90;;;2.54;63.76;93550.59;4946379;28;20294;-83
2021/11/26 04:20:06;;;;;;;65.15;29.92;;;3.50;76.90;;;2.50;63.63;93543.34;4943534;28;20331;-83
2021/11/26 04:22:34;;;;;;;67.90;30.27;;;3.50;76.90;;;2.49;63.52;93549.50;4939273;28;20203;-83
2021/11/26 04:25:02;;;;;;;76.03;31.65;;;3.50;76.80;;;2.53;63.50;93566.28;4949216;28;20253;-83
2021/11/26 04:27:30;;;;;;;77.47;32.10;;;3.50;76.80;;;2.51;63.69;93565.66;4935201;28;20199;-83
2021/11/26 04:29:57;;;;;;;71.30;31.42;;;3.50;76.90;;;2.48;63.65;93564.22;4952322;28;20207;-82
2021/11/26 04:32:26;;;;;;;79.50;34.13;;;3.50;77.00;;;2.50;63.85;93571.81;4934371;28;20227;-82
2021/11/26 04:34:54;;;;;;;77.00;30.92;;;3.50;77.00;;;2.49;63.79;93557.25;4930079;28;20375;-83
2021/11/26 04:37:21;;;;;;;66.63;30.30;;;3.50;76.90;;;2.46;63.88;93560.22;4934367;28;20215;-83
2021/11/26 04:39:48;;;;;;;76.43;32.50;;;3.50;76.90;;;2.42;63.78;93561.53;4938779;28;20245;-83
2021/11/26 04:42:16;;;;;;;72.13;31.10;;;3.50;77.00;;;2.46;63.89;93562.81;4942124;28;20197;-84
2021/11/26 04:44:46;;;;;;;71.07;31.67;;;3.50;76.90;;;2.44;63.91;93549.22;4937181;28;20231;-83
2021/11/26 04:47:13;;;;;;;78.38;34.33;;;3.50;77.00;;;2.37;64.04;93541.38;4939922;28;20295;-83
2021/11/26 04:49:41;;;;;;;69.82;31.98;;;3.50;77.00;;;2.41;63.90;93542.63;4940538;28;20223;-83
2021/11/26 04:52:09;;;;;;;73.18;31.90;;;3.50;77.00;;;2.37;64.08;93531.03;4940991;28;20233;-84
2021/11/26 04:54:37;;;;;;;78.95;34.28;;;3.40;77.00;;;2.33;64.34;93530.56;4942154;28;20601;-83
2021/11/26 04:57:05;;;;;;;70.97;31.70;;;3.40;77.00;;;2.35;64.35;93532.97;4938826;29;20200;-83
2021/11/26 04:59:32;;;;;;;80.15;33.42;;;3.40;77.00;;;2.33;64.03;93538.31;4938508;29;20502;-83
2021/11/26 05:01:59;;;;;;;73.45;31.65;;;3.40;77.10;;;2.29;64.26;93520.75;4938870;29;20259;-84
2021/11/26 05:04:27;;;;;;;73.68;31.48;;;3.50;77.10;;;2.31;64.27;93517.00;4921609;29;20238;-83
2021/11/26 05:06:55;;;;;;;65.15;28.95;;;3.40;77.10;;;2.32;64.41;93504.84;4938688;28;20231;-84
2021/11/26 05:09:22;;;;;;;65.43;29.45;;;3.30;77.10;;;2.34;64.23;93500.31;4943334;28;20257;-84
2021/11/26 05:11:51;;;;;;;71.10;31.23;;;3.40;77.10;;;2.32;64.14;93489.31;4928059;28;20206;-85
2021/11/26 05:14:19;;;;;;;74.10;29.80;;;3.30;77.10;;;2.34;64.29;93492.53;4943978;28;20318;-83
2021/11/26 05:16:47;;;;;;;74.35;31.90;;;3.30;77.10;;;2.35;64.38;93491.56;4924443;29;20199;-82
2021/11/26 05:19:14;;;;;;;70.07;30.92;;;3.30;77.10;;;2.30;64.22;93481.75;4940454;29;20325;-83
2021/11/26 05:21:41;;;;;;;64.00;28.77;;;3.30;77.10;;;2.32;64.54;93478.97;4940110;29;20211;-84
2021/11/26 05:24:11;;;;;;;70.18;28.70;;;3.30;77.10;;;2.29;64.32;93484.50;4940185;29;20241;-84
2021/11/26 05:26:39;;;;;;;66.15;28.75;;;3.30;77.20;;;2.32;64.10;93491.91;4947002;28;20223;-83
2021/11/26 05:29:08;;;;;;;67.85;29.15;;;3.30;77.20;;;2.29;63.89;93487.09;4943201;28;20273;-83
2021/11/26 05:31:36;;;;;;;66.97;27.20;;;3.30;77.10;;;2.35;64.00;93491.56;4959500;28;20201;-83
2021/11/26 05:34:08;;;;;;;64.55;28.25;;;3.30;77.20;;;2.31;64.29;93485.94;4943499;28;20219;-84
2021/11/26 05:36:36;;;;;;;63.08;27.13;;;3.30;77.30;;;2.35;63.94;93488.97;4927240;28;20218;-84
2021/11/26 05:39:06;;;;;;;68.43;28.35;;;3.30;77.10;;;2.34;64.16;93485.56;4943245;28;20314;-82
2021/11/26 05:41:33;;;;;;;76.43;31.10;;;3.30;77.20;;;2.34;63.94;93480.41;4959196;28;20191;-83
2021/11/26 05:44:00;;;;;;;64.82;28.65;;;3.30;77.20;;;2.31;63.99;93474.81;4942784;28;20329;-84
2021/11/26 05:46:28;;;;;;;66.25;28.35;;;3.30;77.30;;;2.35;64.09;93483.81;4942061;28;20194;-83
2021/11/26 05:48:55;;;;;;;64.53;27.90;;;3.40;77.30;;;2.36;64.06;93482.84;4927139;28;20219;-84
2021/11/26 05:51:23;;;;;;;66.57;29.20;;;3.30;77.20;;;2.35;64.16;93473.47;4927308;28;20205;-83
2021/11/26 05:53:50;;;;;;;70.45;30.83;;;3.40;77.30;;;2.34;63.78;93482.19;4939421;29;20221;-82
2021/11/26 05:56:17;;;;;;;70.97;30.45;;;3.30;77.20;;;2.31;64.45;93480.78;4939464;29;20246;-83
2021/11/26 05:58:45;;;;;;;68.63;29.63;;;3.30;77.20;;;2.26;63.93;93472.75;4939480;29;20314;-83
2021/11/26 06:01:12;;;;;;;68.40;29.05;;;3.30;77.20;;;2.30;64.10;93484.34;4939556;29;20211;-83
2021/11/26 06:03:40;;;;;;;63.80;28.23;;;3.30;77.20;;;2.29;63.94;93481.94;4939227;29;20331;-83
2021/11/26 06:06:07;;;;;;;66.80;29.65;;;3.30;77.20;;;2.26;64.51;93474.50;4926149;28;20634;-82
2021/11/26 06:08:35;;;;;;;64.65;30.02;;;3.30;77.20;;;2.27;64.32;93478.72;4942865;28;20226;-84
2021/11/26 06:11:03;;;;;;;66.28;29.33;;;3.30;77.30;;;2.24;64.23;93472.91;4942749;28;20207;-84
2021/11/26 06:13:32;;;;;;;65.20;31.05;;;3.30;77.20;;;2.26;64.23;93479.69;4942519;28;20290;-83
2021/11/26 06:15:59;;;;;;;64.47;30.88;;;3.30;77.20;;;2.18;64.48;93463.25;4941187;28;20306;-84
2021/11/26 06:18:27;;;;;;;62.08;28.73;;;3.30;77.20;;;2.27;64.30;93478.72;4942524;28;20206;-83
2021/11/26 06:20:54;;;;;;;56.40;27.95;;;3.30;77.30;;;2.24;64.09;93477.28;4942279;28;20202;-84
2021/11/26 06:23:22;;;;;;;64.80;31.13;;;3.20;77.20;;;2.27;64.10;93481.28;4941060;28;20665;-84
2021/11/26 06:25:50;;;;;;;61.90;30.25;;;3.30;77.20;;;2.28;64.15;93486.28;4956650;28;20206;-84
2021/11/26 06:28:17;;;;;;;61.35;30.45;;;3.30;77.30;;;2.27;64.11;93479.53;4940134;28;20198;-84
2021/11/26 06:30:45;;;;;;;65.88;30.85;;;3.20;77.20;;;2.28;64.09;93482.91;4956066;28;20245;-84
2021/11/26 06:33:12;;;;;;;64.65;30.58;;;3.30;77.20;;;2.29;64.17;93487.09;4923269;28;20199;-83
2021/11/26 06:35:40;;;;;;;60.67;29.33;;;3.30;77.30;;;2.25;63.92;93481.47;4940429;28;20705;-82
2021/11/26 06:38:08;;;;;;;67.82;32.30;;;3.30;77.30;;;2.24;64.36;93477.28;4941447;28;20685;-83
2021/11/26 06:40:37;;;;;;;58.85;29.63;;;3.30;77.30;;;2.27;64.42;93479.53;4941722;28;20249;-83
2021/11/26 06:43:05;;;;;;;63.13;30.92;;;3.30;77.20;;;2.28;64.17;93478.53;4940712;28;20657;-83
2021/11/26 06:45:33;;;;;;;57.47;28.50;;;3.30;77.20;;;2.29;64.14;93467.19;4941712;28;20242;-84
2021/11/26 06:48:00;;;;;;;54.10;27.75;;;3.30;77.20;;;2.32;64.34;93471.22;4940065;28;20225;-83
2021/11/26 06:50:28;;;;;;;54.25;27.65;;;3.30;77.20;;;2.34;64.00;93469.25;4940309;28;20325;-83
2021/11/26 06:52:56;;;;;;;56.33;29.25;;;3.30;77.20;;;2.33;63.92;93452.13;4929251;28;20198;-82
2021/11/26 06:55:23;;;;;;;66.60;31.63;;;3.30;77.20;;;2.34;63.92;93451.94;4940368;28;20290;-81
2021/11/26 06:57:51;;;;;;;62.55;31.95;;;3.30;77.20;;;2.32;63.97;93451.34;4950824;28;20282;-83
2021/11/26 07:00:18;;;;;;;66.82;33.22;;;3.30;77.20;;;2.31;63.88;93444.56;4936886;28;20232;-83
2021/11/26 07:02:46;;;;;;;68.10;31.70;;;3.30;77.20;;;2.31;64.18;93457.47;4939844;28;20246;-83
2021/11/26 07:05:14;;;;;;;60.45;30.10;;;3.30;77.20;;;2.30;63.82;93442.94;4938084;28;20262;-83
2021/11/26 07:07:42;;;;;;;60.28;28.15;;;3.30;77.20;;;2.31;63.74;93436.78;4922812;29;20642;-83
2021/11/26 07:10:13;;;;;;;59.13;27.90;;;3.30;77.20;;;2.32;64.31;93435.00;4940214;28;20242;-83
2021/11/26 07:12:41;;;;;;;56.80;27.45;;;3.30;77.30;;;2.37;63.94;93430.09;4957639;28;20221;-82
2021/11/26 07:15:11;;;;;;;59.95;28.23;;;3.30;77.20;;;2.37;64.17;93427.53;4957187;28;20218;-82
2021/11/26 07:17:39;;;;;;;58.20;28.67;;;3.30;77.30;;;2.39;64.05;93421.19;4957506;28;20213;-82
2021/11/26 07:20:08;;;;;;;55.28;26.85;;;3.30;77.30;;;2.37;63.98;93407.63;4954737;28;20278;-83
2021/11/26 07:22:35;;;;;;;55.13;26.77;;;3.30;77.20;;;2.44;63.99;93409.47;4933429;28;20201;-82
2021/11/26 07:25:05;;;;;;;59.38;28.58;;;3.30;77.20;;;2.41;63.68;93405.47;4927086;28;20224;-82
2021/11/26 07:27:33;;;;;;;57.72;26.75;;;3.30;77.20;;;2.44;64.20;93412.06;4945016;28;20207;-82
2021/11/26 07:30:00;;;;;;;56.67;28.08;;;3.30;77.20;;;2.50;63.86;93413.94;4928568;28;20659;-83
2021/11/26 07:32:27;;;;;;;52.95;25.52;;;3.40;77.20;;;2.53;63.81;93413.59;4927156;28;20200;-83
2021/11/26 07:34:55;;;;;;;52.72;25.52;;;3.40;77.20;;;2.54;64.17;93405.66;4931238;28;20226;-82
2021/11/26 07:37:24;;;;;;;54.47;26.40;;;3.40;77.30;;;2.60;64.16;93400.72;4928107;29;20283;-83
2021/11/26 07:39:53;;;;;;;52.65;25.88;;;3.40;77.40;;;2.63;63.77;93397.78;4929650;28;20704;-82
2021/11/26 07:42:21;;;;;;;55.05;26.30;;;3.50;77.40;;;2.63;63.96;93383.06;4933582;28;20191;-82
2021/11/26 07:44:48;;;;;;;52.03;25.08;;;3.50;77.40;;;2.72;63.93;93389.75;4941112;28;20451;-82
2021/11/26 07:47:18;;;;;;;54.53;25.13;;;3.50;77.50;;;2.77;63.77;93394.38;4931872;28;20191;-82
2021/11/26 07:49:51;;;;;;;50.50;24.48;;;3.60;77.50;;;2.81;63.74;93393.03;4953293;28;20589;-83
2021/11/26 07:52:21;;;;;;;56.97;25.90;;;3.60;77.40;;;2.85;63.87;93389.06;4923288;28;20600;-82
2021/11/26 07:54:48;;;;;;;55.58;28.35;;;3.60;77.30;;;2.84;63.39;93384.88;4942985;28;20211;-83
2021/11/26 07:57:16;;;;;;;52.05;26.90;;;3.70;77.20;;;2.83;63.33;93382.47;4939960;28;20195;-83
2021/11/26 07:59:43;;;;;;;47.88;25.25;;;3.70;77.10;;;2.81;63.39;93380.06;4932275;28;20228;-83
2021/11/26 08:02:11;;;;;;;49.35;26.25;;;3.70;77.00;;;2.80;63.12;93368.13;4937970;28;20253;-84
2021/11/26 08:04:39;;;;;;;46.40;24.27;;;3.70;77.00;;;2.83;63.27;93369.53;4941051;28;20328;-83
2021/11/26 08:07:07;;;;;;;53.42;26.73;;;3.70;77.00;;;2.81;63.25;93369.72;4939524;28;20217;-83
2021/11/26 08:09:34;;;;;;;49.25;25.65;;;3.70;76.90;;;2.78;62.89;93359.72;4939379;28;20227;-83
2021/11/26 08:12:02;;;;;;;50.95;25.73;;;3.70;76.90;;;2.82;63.65;93360.97;4923067;28;20245;-82
2021/11/26 08:14:29;;;;;;;45.85;22.67;;;3.70;76.90;;;2.79;63.23;93345.78;4923634;29;20306;-83
2021/11/26 08:16:57;;;;;;;54.28;25.30;;;3.70;77.00;;;2.85;63.41;93346.84;4936934;28;20210;-83
2021/11/26 08:19:25;;;;;;;51.50;25.67;;;3.70;76.90;;;2.87;63.38;93350.06;4946067;28;20274;-83
2021/11/26 08:21:55;;;;;;;43.05;22.65;;;3.70;76.90;;;2.90;63.58;93347.09;4920401;28;20318;-83
2021/11/26 08:24:25;;;;;;;53.28;25.33;;;3.70;77.80;;;2.92;63.21;93344.31;4922842;28;20222;-83
2021/11/26 08:26:54;;;;;;;48.40;24.42;;;3.70;77.00;;;2.94;63.18;93340.59;4953069;28;20210;-83
2021/11/26 08:29:21;;;;;;;50.55;24.63;;;3.80;77.10;;;2.95;63.56;93341.38;4941894;28;20245;-83
2021/11/26 08:31:51;;;;;;;48.28;24.23;;;3.80;77.10;;;2.97;63.22;93344.59;4928846;28;20696;-83
2021/11/26 08:34:19;;;;;;;47.78;24.23;;;3.80;77.10;;;3.00;63.54;93341.63;4939407;28;20256;-83
2021/11/26 08:36:46;;;;;;;47.72;24.60;;;3.80;77.10;;;3.04;63.58;93346.25;4937729;28;20596;-83
2021/11/26 08:39:13;;;;;;;54.35;25.58;;;3.80;77.00;;;3.07;63.41;93347.66;4951771;28;20273;-83
2021/11/26 08:41:41;;;;;;;62.25;29.13;;;3.90;77.10;;;3.07;63.13;93342.50;4945748;28;20237;-83
2021/11/26 08:44:09;;;;;;;71.03;31.38;;;3.90;77.00;;;3.04;62.72;93348.06;4955887;28;20288;-83
2021/11/26 08:46:37;;;;;;;69.80;31.17;;;3.90;76.80;;;2.96;63.09;93332.63;4930800;28;20261;-83
2021/11/26 08:49:04;;;;;;;68.07;30.70;;;3.90;76.80;;;2.95;63.03;93334.41;4951430;28;20235;-83
2021/11/26 08:51:35;;;;;;;66.97;31.15;;;3.90;76.60;;;2.92;63.17;93336.56;4944611;28;20305;-83
2021/11/26 08:54:03;;;;;;;61.80;29.27;;;3.90;76.60;;;2.86;63.31;93331.13;4929781;28;20223;-82
2021/11/26 08:56:31;;;;;;;57.92;28.98;;;3.90;76.70;;;2.86;63.14;93341.50;4956514;28;20580;-82
2021/11/26 08:59:01;;;;;;;60.30;29.05;;;3.90;76.70;;;2.93;63.20;93343.34;4941582;28;20228;-83
2021/11/26 09:01:33;;;;;;;61.15;28.13;;;3.90;76.70;;;2.90;63.34;93338.53;4939297;28;20226;-83
2021/11/26 09:04:01;;;;;;;62.17;29.98;;;3.90;76.80;;;2.91;63.32;93329.78;4950359;28;20697;-82
2021/11/26 09:06:29;;;;;;;63.80;30.20;;;3.90;76.80;;;2.92;63.18;93328.78;4939094;28;20634;-82
2021/11/26 09:08:56;;;;;;;66.05;30.02;;;3.90;76.90;;;2.88;63.24;93333.53;4958197;28;20227;-82
2021/11/26 09:11:23;;;;;;;57.22;28.17;;;3.80;76.60;;;2.87;63.01;93327.56;4923266;28;20280;-82
2021/11/26 09:13:50;;;;;;;60.83;30.02;;;3.90;76.70;;;2.87;63.46;93329.34;4929371;28;20219;-83
2021/11/26 09:16:18;;;;;;;58.13;27.55;;;3.90;76.70;;;2.86;63.41;93319.97;4924719;28;20203;-83
2021/11/26 09:18:47;;;;;;;52.03;25.23;;;3.80;76.70;;;2.91;63.05;93322.81;4945473;28;20277;-83
2021/11/26 09:21:15;;;;;;;55.50;26.15;;;3.80;76.70;;;2.93;63.25;93320.84;4943802;28;20257;-83
2021/11/26 09:23:43;;;;;;;53.85;25.13;;;3.80;76.80;;;2.96;63.36;93317.09;4960072;28;20238;-82
2021/11/26 09:26:10;;;;;;;49.58;24.67;;;3.90;76.90;;;3.01;63.41;93319.91;4941288;28;20227;-82
2021/11/26 09:28:38;;;;;;;53.50;26.10;;;3.80;76.90;;;3.01;63.29;93315.53;4944411;28;20282;-83
2021/11/26 09:31:05;;;;;;;46.28;23.20;;;3.80;76.90;;;3.04;62.95;93304.81;4945292;28;20214;-82
2021/11/26 09:33:36;;;;;;;49.35;23.35;;;3.90;77.00;;;3.06;63.48;93306.41;4921519;28;20202;-83
2021/11/26 09:36:07;;;;;;;51.47;24.88;;;3.90;76.90;;;3.08;63.15;93301.88;4938431;28;20213;-83
2021/11/26 09:38:37;;;;;;;56.03;28.13;;;3.90;77.00;;;3.03;62.86;93282.47;4928902;28;20210;-83
2021/11/26 09:41:10;;;;;;;47.17;24.33;;;3.90;76.80;;;3.07;63.11;93289.91;4957847;28;20207;-83
2021/11/26 09:44:01;;;;;;;51.22;25.17;;;3.90;76.80;;;3.06;63.27;93283.09;4949443;28;20692;-83
2021/11/26 09:46:32;;;;;;;55.15;27.73;;;4.00;76.80;;;3.03;63.01;93279.09;4942161;28;20218;-83
2021/11/26 09:49:01;;;;;;;61.22;28.50;;;3.90;76.70;;;3.02;62.77;93274.91;4931013;28;20226;-83
2021/11/26 09:51:28;;;;;;;54.38;26.60;;;4.00;77.50;;;2.99;63.04;93273.50;4926485;28;20297;-83
2021/11/26 09:53:57;;;;;;;51.33;26.95;;;4.00;76.70;;;2.97;63.02;93267.69;4943701;28;20232;-83
2021/11/26 09:56:25;;;;;;;57.00;26.35;;;3.90;76.70;;;2.97;63.38;93254.75;4941830;28;20199;-83
2021/11/26 09:58:52;;;;;;;53.17;25.77;;;3.90;76.70;;;2.92;62.97;93246.72;4930942;28;20233;-84
2021/11/26 10:01:21;;;;;;;52.88;25.63;;;3.90;76.80;;;2.95;63.29;93250.75;4942647;28;20305;-83
2021/11/26 10:03:52;;;;;;;48.53;23.48;;;3.90;76.80;;;2.92;63.29;93241.56;4942883;28;20281;-83
2021/11/26 10:06:38;;;;;;;48.55;24.08;;;3.90;76.90;;;2.92;63.29;93241.56;4932402;28;20688;-84
2021/11/26 10:09:11;;;;;;;48.80;23.98;;;3.80;76.80;;;2.98;63.41;93232.22;4944435;28;20241;-84
2021/11/26 10:11:53;;;;;;;49.83;23.45;;;3.90;77.00;;;2.99;63.35;93220.88;4937847;28;20202;-84
2021/11/26 10:14:24;;;;;;;47.78;23.88;;;3.90;76.90;;;2.99;63.21;93221.69;4950926;28;20222;-83
2021/11/26 10:17:19;;;;;;;44.53;22.98;;;3.90;76.90;;;2.99;63.35;93213.94;4945726;28;20277;-85
2021/11/26 10:19:54;;;;;;;47.70;24.20;;;3.90;76.90;;;2.96;63.40;93203.94;4952159;28;20281;-84
2021/11/26 10:22:34;;;;;;;51.20;25.38;;;3.90;76.90;;;2.94;63.40;93192.16;4957737;28;20689;-83
2021/11/26 10:25:21;;;;;;;48.40;23.33;;;3.90;76.90;;;2.99;63.47;93185.44;4942117;28;20223;-84
2021/11/26 10:27:57;;;;;;;47.95;23.90;;;3.90;76.90;;;2.99;63.69;93187.22;4942585;28;20214;-84